Time;durP1;ratioP1;P1;durP2;ratioP2;P2;SDS_P1;SDS_P2;PMS_P1;PMS_P2;Temp;Humidity;BMP_temperature;BMP_pressure;BME280_temperature;BME280_humidity;BME280_pressure;Samples;Min_cycle;Max_cycle;Signal;HPM_P1;HPM_P2
2021/10/19 00:01:21;;;;;;;13.70;10.63;;;;;;;12.81;66.57;101596.41;5081919;28;20468;-70
2021/10/19 00:03:47;;;;;;;11.97;10.77;;;;;;;12.51;67.10;101589.88;5081246;28;20177;-70
2021/10/19 00:06:13;;;;;;;13.60;12.30;;;;;;;12.78;66.00;101585.91;5081399;28;20531;-71
2021/10/19 00:08:39;;;;;;;12.70;10.87;;;;;;;12.67;66.52;101587.50;5081656;28;20407;-69
2021/10/19 00:11:04;;;;;;;11.40;10.30;;;;;;;12.79;66.20;101585.06;5080806;28;20469;-70
2021/10/19 00:13:30;;;;;;;10.70;9.70;;;;;;;12.84;65.93;101587.72;5080976;28;20173;-69
2021/10/19 00:15:55;;;;;;;11.63;10.43;;;;;;;12.87;65.58;101588.66;5081528;28;20539;-70
2021/10/19 00:18:21;;;;;;;13.40;12.10;;;;;;;12.54;66.51;101591.66;5081060;28;20172;-69
2021/10/19 00:20:46;;;;;;;13.87;12.40;;;;;;;12.98;65.30;101592.28;5080609;28;20592;-69
2021/10/19 00:23:11;;;;;;;13.43;12.03;;;;;;;12.91;65.10;101600.06;5081554;28;20166;-70
2021/10/19 00:25:37;;;;;;;12.20;10.97;;;;;;;12.70;65.52;101598.88;5081088;28;20441;-70
2021/10/19 00:28:02;;;;;;;15.90;12.83;;;;;;;12.80;64.95;101600.78;5080975;28;20195;-69
2021/10/19 00:30:28;;;;;;;13.80;12.40;;;;;;;13.34;63.79;101603.25;5081115;28;20165;-70
2021/10/19 00:32:53;;;;;;;12.53;11.33;;;;;;;13.16;64.12;101597.75;5080678;28;20180;-69
2021/10/19 00:35:19;;;;;;;14.20;11.90;;;;;;;13.03;64.15;101592.38;5080811;28;20584;-70
2021/10/19 00:37:44;;;;;;;13.00;11.57;;;;;;;13.42;63.18;101585.91;5080985;28;20554;-71
2021/10/19 00:40:10;;;;;;;12.17;10.47;;;;;;;13.48;62.72;101578.09;5080353;28;20442;-69
2021/10/19 00:42:36;;;;;;;12.37;11.07;;;;;;;13.24;63.21;101569.94;5080463;28;20267;-69
2021/10/19 00:45:03;;;;;;;15.10;12.23;;;;;;;13.23;63.10;101576.03;5081033;28;20160;-70
2021/10/19 00:47:29;;;;;;;14.33;11.70;;;;;;;13.19;62.89;101580.38;5080297;28;20419;-70
2021/10/19 00:49:54;;;;;;;12.50;11.20;;;;;;;13.58;62.51;101575.59;5080251;28;20479;-69
2021/10/19 00:52:19;;;;;;;15.20;11.73;;;;;;;13.24;62.98;101569.94;5063353;28;20201;-70
2021/10/19 00:54:46;;;;;;;13.17;11.77;;;;;;;13.27;62.85;101568.25;5080779;28;20172;-71
2021/10/19 00:57:12;;;;;;;13.50;11.50;;;;;;;13.06;63.76;101568.84;5080401;28;20199;-71
2021/10/19 00:59:43;;;;;;;17.80;12.33;;;;;;;13.14;63.27;101558.47;5080826;28;20494;-71
2021/10/19 01:02:08;;;;;;;14.97;12.00;;;;;;;13.20;63.27;101549.81;5079899;28;20738;-70
2021/10/19 01:04:33;;;;;;;15.20;11.80;;;;;;;13.23;63.05;101560.31;5080094;28;20423;-71
2021/10/19 01:07:00;;;;;;;13.33;11.93;;;;;;;13.48;62.44;101553.66;5080583;28;20179;-71
2021/10/19 01:09:25;;;;;;;14.00;12.50;;;;;;;13.61;61.97;101541.53;5079921;28;20192;-70
2021/10/19 01:11:51;;;;;;;13.77;12.47;;;;;;;13.72;61.89;101544.28;5079792;28;20467;-70
2021/10/19 01:14:16;;;;;;;13.70;11.30;;;;;;;13.42;62.63;101548.34;5063187;28;20176;-69
2021/10/19 01:16:41;;;;;;;14.67;11.13;;;;;;;13.44;62.73;101552.72;5079776;28;20169;-70
2021/10/19 01:19:07;;;;;;;14.23;12.23;;;;;;;13.47;62.22;101554.50;5062398;28;20172;-70
2021/10/19 01:21:32;;;;;;;16.10;11.90;;;;;;;13.37;62.37;101564.00;5080130;28;20538;-70
2021/10/19 01:23:57;;;;;;;13.40;12.00;;;;;;;13.45;62.85;101562.34;5079586;28;20271;-70
2021/10/19 01:26:23;;;;;;;12.80;11.50;;;;;;;13.70;62.00;101554.75;5079563;28;20184;-71
2021/10/19 01:28:49;;;;;;;13.97;12.57;;;;;;;13.67;62.11;101556.47;5079996;28;20157;-71
2021/10/19 01:31:14;;;;;;;16.23;12.00;;;;;;;13.71;62.29;101556.50;5079312;28;20792;-71
2021/10/19 01:33:40;;;;;;;14.60;12.87;;;;;;;13.40;62.84;101550.06;5079660;28;20222;-70
2021/10/19 01:36:07;;;;;;;14.60;13.10;;;;;;;13.62;62.69;101553.78;5080034;28;20203;-71
2021/10/19 01:38:34;;;;;;;15.30;12.33;;;;;;;13.69;62.35;101552.97;5079290;28;20527;-70
2021/10/19 01:41:00;;;;;;;15.97;13.17;;;;;;;13.43;62.65;101550.97;5079174;28;20439;-71
2021/10/19 01:43:27;;;;;;;15.17;12.17;;;;;;;13.53;62.13;101558.94;5079848;28;20419;-71
2021/10/19 01:45:56;;;;;;;14.90;13.40;;;;;;;13.73;61.99;101551.28;5079415;28;20819;-72
2021/10/19 01:48:21;;;;;;;16.10;14.40;;;;;;;13.70;61.93;101552.13;5079193;28;20457;-71
2021/10/19 01:50:47;;;;;;;15.63;14.07;;;;;;;13.64;62.54;101546.84;5078871;28;20536;-70
2021/10/19 01:53:13;;;;;;;15.20;13.60;;;;;;;13.64;62.12;101544.22;5079111;28;20197;-71
2021/10/19 01:55:39;;;;;;;15.57;13.33;;;;;;;13.55;62.22;101539.75;5079333;28;20173;-70
2021/10/19 01:58:06;;;;;;;15.23;13.60;;;;;;;13.23;63.17;101531.50;5079057;28;20169;-70
2021/10/19 02:00:34;;;;;;;14.77;13.17;;;;;;;13.58;62.40;101531.03;5061583;28;20420;-70
2021/10/19 02:02:59;;;;;;;15.83;13.67;;;;;;;13.69;62.03;101529.41;5079261;28;20422;-71
2021/10/19 02:05:24;;;;;;;15.13;13.53;;;;;;;13.63;62.02;101526.72;5078859;28;20458;-71
2021/10/19 02:07:50;;;;;;;14.97;13.37;;;;;;;13.69;62.25;101520.66;5078783;28;20173;-70
2021/10/19 02:10:15;;;;;;;18.60;13.63;;;;;;;13.69;62.16;101510.19;5079242;28;20165;-71
2021/10/19 02:12:41;;;;;;;17.83;14.50;;;;;;;13.70;62.02;101507.56;5077767;28;20262;-70
2021/10/19 02:15:07;;;;;;;15.57;13.60;;;;;;;14.19;60.91;101498.34;5078568;28;20180;-70
2021/10/19 02:17:32;;;;;;;15.80;13.57;;;;;;;14.00;61.23;101502.59;5078949;28;20169;-69
2021/10/19 02:20:01;;;;;;;16.43;14.60;;;;;;;14.28;60.38;101493.16;5078448;28;20450;-71
2021/10/19 02:22:28;;;;;;;16.70;14.90;;;;;;;13.81;61.63;101492.84;5078483;28;20177;-70
2021/10/19 02:24:53;;;;;;;15.53;13.37;;;;;;;13.99;61.12;101472.88;5061613;28;20438;-71
2021/10/19 02:27:19;;;;;;;17.67;14.47;;;;;;;13.87;61.78;101478.00;5078457;28;20785;-71
2021/10/19 02:29:44;;;;;;;15.43;13.70;;;;;;;13.60;62.54;101471.69;5078483;28;20173;-70
2021/10/19 02:32:09;;;;;;;15.87;14.20;;;;;;;13.43;63.15;101474.16;5078708;28;20600;-69
2021/10/19 02:34:35;;;;;;;15.60;14.00;;;;;;;13.27;63.91;101452.13;5078350;28;20192;-71
2021/10/19 02:37:00;;;;;;;18.23;14.80;;;;;;;13.14;64.28;101440.66;5078457;28;20165;-70
2021/10/19 02:39:25;;;;;;;19.37;14.40;;;;;;;13.28;64.22;101435.56;5078999;28;20161;-71
2021/10/19 02:41:51;;;;;;;18.07;14.60;;;;;;;13.31;63.83;101448.66;5060844;28;20173;-71
2021/10/19 02:44:16;;;;;;;18.40;14.67;;;;;;;13.50;63.57;101451.50;5078418;28;20168;-70
2021/10/19 02:46:41;;;;;;;17.30;15.33;;;;;;;13.50;63.66;101438.41;5078554;28;20523;-70
2021/10/19 02:49:07;;;;;;;16.17;14.43;;;;;;;13.03;65.43;101440.56;5078075;28;20540;-70
2021/10/19 02:51:32;;;;;;;17.03;15.23;;;;;;;13.31;64.80;101436.47;5077994;28;20561;-71
2021/10/19 02:53:57;;;;;;;15.97;14.27;;;;;;;13.17;65.20;101439.81;5078568;28;20518;-70
2021/10/19 02:56:23;;;;;;;18.43;15.27;;;;;;;13.08;65.69;101446.72;5077973;28;20518;-71
2021/10/19 02:58:49;;;;;;;20.00;14.60;;;;;;;13.25;65.39;101443.41;5077952;28;20229;-71
2021/10/19 03:01:14;;;;;;;15.03;13.10;;;;;;;13.44;65.01;101440.09;5078292;28;20580;-72
2021/10/19 03:03:40;;;;;;;15.70;14.10;;;;;;;13.48;64.66;101428.78;5077882;28;20177;-71
2021/10/19 03:06:05;;;;;;;15.87;14.17;;;;;;;13.48;64.60;101434.03;5077987;28;20457;-71
2021/10/19 03:08:31;;;;;;;17.07;14.10;;;;;;;13.59;64.49;101425.41;5078158;28;20176;-71
2021/10/19 03:10:56;;;;;;;15.93;14.20;;;;;;;13.79;64.19;101420.31;5077582;28;20189;-71
2021/10/19 03:13:22;;;;;;;19.50;14.80;;;;;;;13.26;65.27;101418.94;5077747;28;20199;-71
2021/10/19 03:15:47;;;;;;;16.07;14.40;;;;;;;12.90;66.94;101426.44;5078387;28;20161;-71
2021/10/19 03:18:12;;;;;;;17.47;15.43;;;;;;;13.33;65.73;101426.00;5077845;28;20169;-71
2021/10/19 03:20:38;;;;;;;18.37;14.43;;;;;;;13.14;65.85;101432.81;5077684;28;20169;-71
2021/10/19 03:23:03;;;;;;;15.87;14.20;;;;;;;13.26;65.72;101439.88;5061556;28;20461;-68
2021/10/19 03:25:28;;;;;;;16.33;14.60;;;;;;;13.18;66.07;101444.19;5081756;28;20165;-70
2021/10/19 03:27:54;;;;;;;18.57;15.53;;;;;;;13.28;66.00;101446.03;5081789;28;20184;-71
2021/10/19 03:30:19;;;;;;;16.80;14.50;;;;;;;13.21;66.57;101452.09;5082228;28;20161;-70
2021/10/19 03:32:44;;;;;;;17.20;15.40;;;;;;;13.36;65.60;101446.16;5081576;28;20211;-70
2021/10/19 03:35:10;;;;;;;15.10;13.37;;;;;;;13.03;66.77;101439.66;5081615;28;20422;-70
2021/10/19 03:37:35;;;;;;;17.43;15.40;;;;;;;13.24;66.18;101439.00;5081984;28;20157;-70
2021/10/19 03:40:00;;;;;;;17.30;14.40;;;;;;;13.59;65.27;101435.88;5081495;28;20169;-71
2021/10/19 03:42:26;;;;;;;17.13;15.23;;;;;;;13.44;65.23;101441.84;5081269;28;20193;-71
2021/10/19 03:44:51;;;;;;;17.37;14.53;;;;;;;13.44;65.57;101439.25;5082017;28;20540;-71
2021/10/19 03:47:16;;;;;;;18.20;14.60;;;;;;;13.53;65.40;101443.66;5081520;28;20455;-71
2021/10/19 03:49:42;;;;;;;17.90;16.00;;;;;;;13.41;65.81;101447.94;5073323;28;20540;-71
2021/10/19 03:52:08;;;;;;;20.83;17.07;;;;;;;13.49;65.51;101448.03;5101244;28;20515;-70
2021/10/19 03:54:33;;;;;;;18.00;16.10;;;;;;;13.52;65.51;101448.03;5101687;28;20168;-70
2021/10/19 03:56:58;;;;;;;17.27;15.37;;;;;;;13.43;65.70;101447.94;5101621;28;20168;-71
2021/10/19 03:59:24;;;;;;;19.00;17.03;;;;;;;13.58;65.35;101441.97;5101473;28;20175;-70
2021/10/19 04:01:49;;;;;;;20.53;16.50;;;;;;;13.59;65.19;101443.72;5101388;28;20164;-70
2021/10/19 04:04:14;;;;;;;19.03;17.13;;;;;;;13.68;64.90;101443.81;5101534;28;20172;-71
2021/10/19 04:06:40;;;;;;;18.37;16.20;;;;;;;13.45;65.75;101446.25;5102872;28;20168;-71
2021/10/19 04:09:06;;;;;;;21.40;17.27;;;;;;;13.51;65.47;101451.50;5101499;28;20164;-70
2021/10/19 04:11:31;;;;;;;18.90;16.80;;;;;;;13.36;65.97;101441.78;5101713;28;20569;-71
2021/10/19 04:13:56;;;;;;;19.87;17.77;;;;;;;13.61;65.24;101440.25;5104011;28;20184;-71
2021/10/19 04:16:21;;;;;;;24.73;19.73;;;;;;;13.38;66.08;101444.41;5103024;28;20176;-71
2021/10/19 04:18:47;;;;;;;21.20;18.30;;;;;;;13.53;65.46;101451.53;5104368;28;20172;-71
2021/10/19 04:21:12;;;;;;;20.87;17.73;;;;;;;13.47;65.79;101449.72;5101747;28;20168;-71
2021/10/19 04:23:37;;;;;;;19.20;16.70;;;;;;;13.42;66.79;101451.44;5101371;28;20225;-71
2021/10/19 04:26:03;;;;;;;21.47;17.30;;;;;;;13.60;66.00;101443.75;5101121;28;20183;-70
2021/10/19 04:28:28;;;;;;;19.57;17.03;;;;;;;13.48;66.32;101446.25;5101441;28;20540;-70
2021/10/19 04:30:54;;;;;;;22.47;19.10;;;;;;;13.45;66.28;101454.09;5100612;28;20306;-71
2021/10/19 04:33:19;;;;;;;22.00;17.30;;;;;;;13.56;66.06;101444.59;5100849;28;20179;-72
2021/10/19 04:35:45;;;;;;;23.70;17.73;;;;;;;13.43;66.61;101432.25;5101132;28;20176;-71
2021/10/19 04:38:10;;;;;;;19.47;17.40;;;;;;;13.65;65.87;101422.81;5101097;28;20260;-71
2021/10/19 04:40:35;;;;;;;19.90;16.57;;;;;;;13.54;66.16;101422.72;5100799;28;20184;-71
2021/10/19 04:43:01;;;;;;;20.93;18.20;;;;;;;13.64;66.05;101421.06;5101131;28;20195;-70
2021/10/19 04:45:27;;;;;;;18.77;16.70;;;;;;;13.50;66.56;101422.69;5100711;28;20179;-70
2021/10/19 04:47:53;;;;;;;20.83;17.33;;;;;;;13.38;66.64;101419.13;5100680;28;20198;-71
2021/10/19 04:50:18;;;;;;;27.90;18.20;;;;;;;13.26;67.60;101424.19;5088838;28;20716;-71
2021/10/19 04:52:43;;;;;;;21.20;18.03;;;;;;;13.37;67.01;101421.69;5080076;28;20484;-69
2021/10/19 04:55:09;;;;;;;20.17;17.97;;;;;;;13.47;66.71;101415.69;5080454;28;20267;-71
2021/10/19 04:57:34;;;;;;;25.27;19.57;;;;;;;13.62;66.56;101412.31;5080037;28;20193;-70
2021/10/19 04:59:59;;;;;;;24.20;17.83;;;;;;;13.89;65.84;101400.28;5080221;28;20177;-71
2021/10/19 05:02:25;;;;;;;25.80;20.27;;;;;;;13.51;66.92;101403.50;5080488;28;20157;-71
2021/10/19 05:04:50;;;;;;;21.50;19.30;;;;;;;13.91;65.88;101407.28;5079734;28;20177;-71
2021/10/19 05:07:15;;;;;;;20.00;17.87;;;;;;;13.81;66.11;101414.22;5079843;28;20527;-70
2021/10/19 05:09:41;;;;;;;22.13;19.83;;;;;;;13.50;67.32;101402.59;5080250;28;20425;-70
2021/10/19 05:12:06;;;;;;;21.87;18.30;;;;;;;13.86;66.97;101398.50;5079515;28;20511;-69
2021/10/19 05:14:32;;;;;;;21.93;19.37;;;;;;;13.81;66.66;101393.25;5079698;28;20499;-69
2021/10/19 05:16:57;;;;;;;22.03;18.90;;;;;;;13.68;67.45;101396.66;5080033;28;20161;-70
2021/10/19 05:19:22;;;;;;;22.53;17.93;;;;;;;13.87;67.34;101381.03;5062044;28;20177;-70
2021/10/19 05:21:47;;;;;;;23.10;18.63;;;;;;;13.96;66.85;101375.84;5079563;28;20311;-71
2021/10/19 05:24:13;;;;;;;22.03;18.90;;;;;;;13.86;66.85;101371.44;5080165;28;20411;-71
2021/10/19 05:26:38;;;;;;;21.07;18.70;;;;;;;13.81;67.28;101358.28;5062317;28;20173;-71
2021/10/19 05:29:03;;;;;;;20.57;18.40;;;;;;;13.28;69.18;101354.38;5079796;28;20188;-71
2021/10/19 05:31:29;;;;;;;21.10;18.70;;;;;;;13.37;68.48;101359.75;5079716;28;20196;-71
2021/10/19 05:33:54;;;;;;;20.77;17.60;;;;;;;13.50;67.88;101357.22;5079387;28;20175;-70
2021/10/19 05:36:19;;;;;;;19.70;16.60;;;;;;;13.29;68.50;101361.38;5079320;28;20176;-70
2021/10/19 05:38:45;;;;;;;19.13;17.10;;;;;;;12.92;70.19;101366.25;5079699;28;20600;-71
2021/10/19 05:41:10;;;;;;;20.40;18.30;;;;;;;13.05;69.79;101362.91;5078995;28;20165;-71
2021/10/19 05:43:35;;;;;;;26.73;17.83;;;;;;;13.38;68.40;101368.47;5079005;28;20192;-71
2021/10/19 05:46:01;;;;;;;19.50;16.60;;;;;;;12.85;70.20;101365.31;5079605;28;20177;-70
2021/10/19 05:48:26;;;;;;;20.63;18.00;;;;;;;12.80;70.48;101353.97;5079116;28;20188;-70
2021/10/19 05:50:51;;;;;;;21.23;18.63;;;;;;;12.77;70.39;101357.41;5078666;28;20235;-71
2021/10/19 05:53:17;;;;;;;23.27;20.10;;;;;;;12.64;71.25;101363.38;5079428;28;20172;-71
2021/10/19 05:55:42;;;;;;;21.10;17.83;;;;;;;12.80;70.48;101370.53;5078882;28;20184;-70
2021/10/19 05:58:07;;;;;;;21.70;18.50;;;;;;;12.63;71.05;101367.72;5079019;28;20183;-71
2021/10/19 06:00:33;;;;;;;22.67;18.50;;;;;;;12.73;71.14;101379.19;5079135;28;20195;-70
2021/10/19 06:02:58;;;;;;;21.70;19.20;;;;;;;12.85;70.97;101372.31;5078658;28;20173;-71
2021/10/19 06:05:23;;;;;;;24.30;18.50;;;;;;;12.83;70.77;101372.28;5078816;28;20256;-71
2021/10/19 06:07:51;;;;;;;26.87;20.00;;;;;;;13.18;69.50;101363.91;5061704;28;20302;-71
2021/10/19 06:10:20;;;;;;;23.27;18.70;;;;;;;13.14;70.19;101357.75;5078556;28;20470;-70
2021/10/19 06:12:45;;;;;;;22.40;18.30;;;;;;;13.06;69.70;101354.19;5078631;28;20425;-70
2021/10/19 06:15:10;;;;;;;22.20;17.70;;;;;;;13.32;69.76;101350.94;5078967;28;20393;-70
2021/10/19 06:17:36;;;;;;;20.70;18.50;;;;;;;12.82;70.95;101356.59;5078466;28;20514;-71
2021/10/19 06:20:02;;;;;;;22.47;18.30;;;;;;;13.53;69.30;101341.50;5078489;28;20208;-71
2021/10/19 06:22:27;;;;;;;21.33;18.67;;;;;;;13.39;69.45;101341.41;5078784;28;20263;-70
2021/10/19 06:24:52;;;;;;;20.63;18.43;;;;;;;13.62;68.90;101359.91;5078329;28;20516;-72
2021/10/19 06:27:17;;;;;;;21.13;18.70;;;;;;;13.86;68.20;101363.56;5078553;28;20179;-70
2021/10/19 06:29:43;;;;;;;24.50;19.13;;;;;;;13.53;69.26;101371.22;5078871;28;20173;-70
2021/10/19 06:32:08;;;;;;;23.20;19.33;;;;;;;13.65;68.95;101370.41;5078851;28;20207;-70
2021/10/19 06:34:33;;;;;;;28.30;20.77;;;;;;;13.85;68.16;101362.69;5070570;28;20200;-71
2021/10/19 06:36:59;;;;;;;23.17;18.67;;;;;;;13.98;67.81;101368.88;5086803;28;20172;-71
2021/10/19 06:39:24;;;;;;;20.87;18.73;;;;;;;14.01;67.76;101357.53;5098916;28;20180;-70
2021/10/19 06:41:49;;;;;;;21.03;18.77;;;;;;;14.09;67.49;101361.94;5085157;28;20199;-70
2021/10/19 06:44:16;;;;;;;29.70;20.40;;;;;;;13.92;68.06;101364.50;5078848;28;20173;-72
2021/10/19 06:46:41;;;;;;;22.47;19.03;;;;;;;13.78;68.88;101356.53;5078211;28;20236;-70
2021/10/19 06:49:07;;;;;;;23.40;19.27;;;;;;;13.93;68.49;101360.97;5080382;28;20469;-72
2021/10/19 06:51:32;;;;;;;28.37;19.90;;;;;;;13.78;69.29;101353.91;5098984;28;20211;-72
2021/10/19 06:53:57;;;;;;;22.20;18.67;;;;;;;13.93;68.54;101353.13;5098458;28;20250;-72
2021/10/19 06:56:23;;;;;;;20.37;18.27;;;;;;;13.99;68.32;101354.91;5098328;28;20184;-72
2021/10/19 06:58:48;;;;;;;22.50;19.20;;;;;;;14.10;68.36;101350.59;5098654;28;20197;-72
2021/10/19 07:01:15;;;;;;;26.03;20.40;;;;;;;14.38;67.30;101341.97;5098368;28;20200;-71
2021/10/19 07:03:41;;;;;;;24.33;19.33;;;;;;;14.47;67.09;101348.09;5098412;28;20195;-72
2021/10/19 07:06:06;;;;;;;21.37;19.00;;;;;;;14.39;67.65;101339.34;5096834;28;20381;-72
2021/10/19 07:08:33;;;;;;;22.53;18.73;;;;;;;14.45;67.57;101328.88;5077972;28;20183;-71
2021/10/19 07:10:58;;;;;;;19.90;17.80;;;;;;;14.56;67.22;101335.88;5077705;28;20230;-72
2021/10/19 07:13:23;;;;;;;21.17;18.03;;;;;;;14.27;68.02;101342.78;5078368;28;20827;-71
2021/10/19 07:15:53;;;;;;;23.53;19.27;;;;;;;14.45;67.54;101344.63;5077798;28;20443;-73
2021/10/19 07:18:19;;;;;;;21.80;18.40;;;;;;;14.54;67.12;101350.75;5079127;28;20208;-72
2021/10/19 07:20:44;;;;;;;21.63;19.40;;;;;;;14.79;66.77;101365.72;5085233;28;20411;-73
2021/10/19 07:23:09;;;;;;;21.53;18.47;;;;;;;15.18;65.33;101362.28;5082741;28;20169;-72
2021/10/19 07:25:35;;;;;;;19.40;17.50;;;;;;;15.08;65.42;101359.63;5080208;28;20188;-72
2021/10/19 07:28:00;;;;;;;21.83;18.67;;;;;;;15.30;65.02;101359.66;5078367;28;20169;-72
2021/10/19 07:30:26;;;;;;;22.23;19.10;;;;;;;15.40;64.84;101350.03;5078665;28;20553;-72
2021/10/19 07:32:52;;;;;;;20.47;18.37;;;;;;;15.43;64.25;101348.25;5078380;28;20294;-73
2021/10/19 07:35:18;;;;;;;20.60;18.20;;;;;;;15.36;65.10;101351.78;5078835;28;20177;-72
2021/10/19 07:37:44;;;;;;;19.43;17.33;;;;;;;15.18;65.54;101352.66;5081554;28;20418;-71
2021/10/19 07:40:11;;;;;;;19.40;17.40;;;;;;;15.62;64.16;101349.13;5079220;28;20512;-71
2021/10/19 07:42:37;;;;;;;25.47;19.37;;;;;;;15.42;64.44;101349.13;5098351;28;20426;-70
2021/10/19 07:45:05;;;;;;;18.53;16.70;;;;;;;15.40;64.52;101348.28;5097819;28;20425;-71
2021/10/19 07:47:30;;;;;;;21.67;18.40;;;;;;;15.58;64.43;101338.63;5097522;28;20414;-73
2021/10/19 07:49:55;;;;;;;18.37;16.60;;;;;;;15.66;64.42;101329.84;5095016;28;20482;-73
2021/10/19 07:52:20;;;;;;;19.70;17.60;;;;;;;15.70;64.09;101327.22;5074926;28;20266;-71
2021/10/19 07:54:46;;;;;;;18.93;16.73;;;;;;;16.04;63.41;101330.66;5077531;28;20173;-71
2021/10/19 07:57:11;;;;;;;19.70;17.83;;;;;;;16.06;63.16;101328.91;5077336;28;20429;-71
2021/10/19 07:59:36;;;;;;;22.53;17.97;;;;;;;16.18;62.92;101327.94;5077394;28;20169;-71
2021/10/19 08:02:02;;;;;;;20.00;17.90;;;;;;;16.10;62.80;101327.09;5077484;28;20173;-72
2021/10/19 08:04:27;;;;;;;20.20;18.00;;;;;;;16.48;61.95;101326.06;5077437;28;20177;-73
2021/10/19 08:06:52;;;;;;;17.87;16.10;;;;;;;15.81;63.40;101326.31;5077271;28;20176;-73
2021/10/19 08:09:18;;;;;;;19.17;17.27;;;;;;;16.23;62.37;101317.44;5077342;28;20561;-73
2021/10/19 08:11:43;;;;;;;20.50;17.30;;;;;;;16.41;61.87;101314.72;5080075;28;20304;-71
2021/10/19 08:14:09;;;;;;;17.63;15.83;;;;;;;16.33;62.41;101309.47;5080969;28;20188;-70
2021/10/19 08:16:34;;;;;;;18.73;16.73;;;;;;;16.43;61.85;101317.34;5081034;28;20177;-73
2021/10/19 08:18:59;;;;;;;23.80;16.80;;;;;;;15.72;64.68;101317.56;5080888;28;20268;-72
2021/10/19 08:21:25;;;;;;;17.13;15.37;;;;;;;16.12;63.33;101323.59;5080615;28;20195;-71
2021/10/19 08:23:51;;;;;;;18.13;16.20;;;;;;;15.88;64.33;101315.81;5081085;28;20463;-73
2021/10/19 08:26:16;;;;;;;18.27;16.37;;;;;;;16.31;63.23;101313.00;5080356;28;20176;-72
2021/10/19 08:28:43;;;;;;;16.97;15.20;;;;;;;16.24;63.44;101316.56;5080572;28;20173;-72
2021/10/19 08:31:11;;;;;;;18.77;16.83;;;;;;;16.63;62.31;101322.50;5080516;28;20848;-72
2021/10/19 08:33:36;;;;;;;19.80;17.50;;;;;;;16.22;63.34;101320.94;5080472;28;20446;-71
2021/10/19 08:36:02;;;;;;;19.20;16.77;;;;;;;16.28;63.13;101321.78;5080336;28;20428;-70
2021/10/19 08:38:27;;;;;;;17.97;16.03;;;;;;;16.24;63.49;101325.31;5080699;28;20625;-73
2021/10/19 08:40:55;;;;;;;18.80;16.47;;;;;;;16.00;64.22;101328.91;5080200;28;20187;-72
2021/10/19 08:43:21;;;;;;;19.23;16.40;;;;;;;16.27;63.78;101327.91;5079916;28;20550;-71
2021/10/19 08:45:46;;;;;;;25.83;16.77;;;;;;;16.26;64.04;101327.94;5080479;28;20415;-71
2021/10/19 08:48:11;;;;;;;18.50;15.83;;;;;;;16.19;64.02;101323.59;5080164;28;20173;-71
2021/10/19 08:50:37;;;;;;;18.60;16.60;;;;;;;15.68;65.53;101327.19;5079973;28;20532;-70
2021/10/19 08:53:02;;;;;;;18.13;16.37;;;;;;;15.96;64.57;101317.50;5080240;28;20204;-73
2021/10/19 08:55:28;;;;;;;22.27;20.00;;;;;;;16.11;64.82;101299.94;5080082;28;20183;-71
2021/10/19 08:57:56;;;;;;;18.00;16.10;;;;;;;15.99;64.77;101317.53;5079932;28;20259;-71
2021/10/19 09:00:24;;;;;;;17.50;15.77;;;;;;;16.21;64.46;101306.03;5079854;28;20169;-71
2021/10/19 09:02:50;;;;;;;18.97;16.93;;;;;;;16.28;64.34;101303.38;5079875;28;20431;-71
2021/10/19 09:05:22;;;;;;;20.10;16.67;;;;;;;16.96;62.41;101287.16;5079922;28;20432;-70
2021/10/19 09:07:55;;;;;;;18.00;15.87;;;;;;;16.36;64.38;101300.69;5080133;28;20172;-71
2021/10/19 09:10:20;;;;;;;16.20;14.60;;;;;;;16.43;64.00;101305.03;5079648;28;20475;-72
2021/10/19 09:12:59;;;;;;;16.60;15.10;;;;;;;16.64;63.78;101311.06;5079495;28;20583;-72
2021/10/19 09:15:36;;;;;;;16.20;14.53;;;;;;;16.42;64.03;101302.41;5079542;28;20173;-77
2021/10/19 09:18:06;;;;;;;16.07;14.30;;;;;;;16.11;65.48;101298.16;5079753;28;20418;-75
2021/10/19 09:20:40;;;;;;;17.40;13.40;;;;;;;16.04;65.70;101303.47;5079504;28;20508;-73
2021/10/19 09:23:08;;;;;;;18.73;14.33;;;;;;;16.12;65.64;101294.66;5079321;28;20410;-76
2021/10/19 09:25:36;;;;;;;14.93;13.47;;;;;;;15.96;66.02;101304.38;5079339;28;20773;-72
2021/10/19 09:28:03;;;;;;;15.07;13.50;;;;;;;16.05;66.27;101295.59;5079407;28;20457;-75
2021/10/19 09:30:42;;;;;;;14.80;13.17;;;;;;;16.16;66.24;101296.41;5079593;28;20449;-74
2021/10/19 09:33:11;;;;;;;14.20;12.70;;;;;;;16.07;66.71;101293.81;5079134;28;20700;-74
2021/10/19 09:35:37;;;;;;;15.40;13.80;;;;;;;16.69;64.79;101304.00;5079286;28;20408;-73
2021/10/19 09:38:05;;;;;;;24.93;18.00;;;;;;;16.60;64.98;101298.78;5079381;28;20412;-71
2021/10/19 09:40:32;;;;;;;15.83;14.23;;;;;;;16.26;65.51;101289.31;5079022;28;20441;-73
2021/10/19 09:43:04;;;;;;;14.03;12.60;;;;;;;16.41;65.44;101287.50;5079365;28;20485;-71
2021/10/19 09:45:30;;;;;;;15.73;12.83;;;;;;;16.66;64.74;101277.72;5079080;28;20426;-70
2021/10/19 09:47:57;;;;;;;13.73;12.30;;;;;;;16.91;63.94;101270.50;5078918;28;20415;-73
2021/10/19 09:50:23;;;;;;;14.90;13.40;;;;;;;16.60;65.29;101277.72;5078430;28;20496;-73
2021/10/19 09:52:50;;;;;;;14.77;13.37;;;;;;;16.91;64.09;101267.00;5061651;28;20455;-75
2021/10/19 09:55:16;;;;;;;15.00;13.40;;;;;;;17.02;63.69;101269.56;5078890;28;20684;-77
2021/10/19 09:57:42;;;;;;;18.13;14.07;;;;;;;16.46;65.67;101268.16;5078914;28;20418;-76
2021/10/19 10:00:09;;;;;;;13.50;12.20;;;;;;;17.14;63.62;101258.91;5062388;28;20415;-75
2021/10/19 10:02:36;;;;;;;14.77;13.33;;;;;;;17.34;62.59;101256.06;5082671;28;20382;-77
2021/10/19 10:05:02;;;;;;;14.37;12.97;;;;;;;16.49;65.62;101267.28;5081031;28;20411;-77
2021/10/19 10:07:29;;;;;;;14.30;12.90;;;;;;;17.01;64.07;101258.16;5079978;28;20441;-75
2021/10/19 10:09:56;;;;;;;14.40;13.00;;;;;;;16.70;65.37;101244.31;5062202;28;20411;-72
2021/10/19 10:12:28;;;;;;;13.73;12.43;;;;;;;17.26;63.40;101228.94;5060985;28;20454;-72
2021/10/19 10:14:53;;;;;;;13.33;12.10;;;;;;;16.85;64.75;101231.03;5078535;28;20411;-73
2021/10/19 10:17:19;;;;;;;13.90;12.50;;;;;;;16.87;64.87;101236.28;5078675;28;20800;-73
2021/10/19 10:19:44;;;;;;;13.03;11.73;;;;;;;17.57;62.88;101220.69;5078354;28;20173;-72
2021/10/19 10:22:28;;;;;;;14.10;12.70;;;;;;;17.34;63.49;101221.81;5078198;28;20169;-72
2021/10/19 10:25:09;;;;;;;13.77;12.40;;;;;;;17.67;63.26;101220.56;5078224;28;20168;-73
2021/10/19 10:27:35;;;;;;;11.90;10.70;;;;;;;17.34;64.13;101222.69;5078282;28;20430;-73
2021/10/19 10:30:01;;;;;;;13.10;11.90;;;;;;;17.34;64.26;101213.91;5060937;28;20414;-73
2021/10/19 10:32:36;;;;;;;13.87;12.10;;;;;;;17.38;63.96;101210.34;5077724;28;20459;-72
2021/10/19 10:35:09;;;;;;;13.17;11.87;;;;;;;17.69;62.90;101210.00;5078255;28;20192;-73
2021/10/19 10:37:35;;;;;;;15.03;13.40;;;;;;;17.68;63.38;101209.13;5078164;28;20448;-73
2021/10/19 10:40:00;;;;;;;14.27;12.00;;;;;;;17.56;63.69;101205.75;5077653;28;20459;-73
2021/10/19 10:42:34;;;;;;;13.73;12.33;;;;;;;17.37;65.09;101205.97;5077999;28;20188;-74
2021/10/19 10:45:00;;;;;;;14.10;12.80;;;;;;;17.20;65.14;101189.47;5077005;28;20172;-73
2021/10/19 10:47:26;;;;;;;14.00;12.50;;;;;;;17.32;65.01;101200.75;5090981;28;20505;-73
2021/10/19 10:49:52;;;;;;;13.57;12.20;;;;;;;17.54;64.75;101199.66;5084357;28;20220;-75
2021/10/19 10:52:17;;;;;;;13.67;12.27;;;;;;;17.25;65.79;101204.34;5086129;28;20503;-75
2021/10/19 10:54:54;;;;;;;13.07;11.87;;;;;;;17.36;65.73;101204.25;5079209;28;20203;-75
2021/10/19 10:57:20;;;;;;;14.33;12.83;;;;;;;17.10;66.79;101200.13;5078594;28;20419;-71
2021/10/19 10:59:52;;;;;;;14.37;12.87;;;;;;;17.17;66.68;101191.25;5078446;28;20445;-71
2021/10/19 11:02:17;;;;;;;15.87;14.17;;;;;;;17.34;65.80;101177.88;5078201;28;20168;-71
2021/10/19 11:04:55;;;;;;;19.40;14.00;;;;;;;16.93;67.32;101176.56;5094765;28;20418;-72